Presidente Prudente, Brazil
Current Conditions -  °F | °C
As of 2:00 AM on Saturday 20 Dec 2014 (Local Time) from SBDN Reporting Station
Clear Clear  
Wind Chill: 77°   Ceiling: Unl
Heat Index: 79°   Visibility: 6mi
Dew Point: 70°   Wind: 0mph
Humidity: 78%   Direction: NA
Pressure: 29.77"   Gusts: NA
Location:  22.12°S, 51.39°W
Report Text: SBDN 200400Z 00000KT CAVOK 25/21 Q1008
Loading
Personal Weather Stations






























Interactive Weather Map New forecast layout! Learn more

10-Day Weather Forecast

Advertisements
Track Severe Weather on mobile